Time;durP1;ratioP1;P1;durP2;ratioP2;P2;SDS_P1;SDS_P2;PMS_P1;PMS_P2;Temp;Humidity;BMP_temperature;BMP_pressure;BME280_temperature;BME280_humidity;BME280_pressure;Samples;Min_cycle;Max_cycle;Signal;HPM_P1;HPM_P2
2022/09/14 00:01:27;;;;;;;;;;;;;;;;;;5017625;28;19917;-30
2022/09/14 00:03:53;;;;;;;;;;;;;;;;;;5017482;28;19922;-31
2022/09/14 00:06:19;;;;;;;;;;;;;;;;;;5017609;28;19909;-31
2022/09/14 00:08:45;;;;;;;;;;;;;;;;;;5017818;28;19920;-31
2022/09/14 00:11:11;;;;;;;;;;;;;;;;;;5017462;28;19922;-31
2022/09/14 00:13:37;;;;;;;;;;;;;;;;;;5016216;28;19913;-31
2022/09/14 00:16:03;;;;;;;;;;;;;;;;;;5018261;28;19917;-30
2022/09/14 00:18:29;;;;;;;;;;;;;;;;;;5017407;28;19940;-30
2022/09/14 00:20:56;;;;;;;;;;;;;;;;;;5017576;28;20298;-31
2022/09/14 00:23:22;;;;;;;;;;;;;;;;;;5017250;28;20361;-31
2022/09/14 00:25:48;;;;;;;;;;;;;;;;;;5017516;28;19913;-30
2022/09/14 00:28:14;;;;;;;;;;;;;;;;;;5017180;28;19992;-30
2022/09/14 00:30:40;;;;;;;;;;;;;;;;;;5017028;28;20008;-31
2022/09/14 00:33:06;;;;;;;;;;;;;;;;;;5016123;28;19948;-30
2022/09/14 00:35:32;;;;;;;;;;;;;;;;;;5017598;28;19917;-31
2022/09/14 00:37:58;;;;;;;;;;;;;;;;;;5016989;28;19917;-31
2022/09/14 00:40:24;;;;;;;;;;;;;;;;;;5016949;28;19913;-31
2022/09/14 00:42:49;;;;;;;;;;;;;;;;;;5016865;28;19966;-31
2022/09/14 00:45:16;;;;;;;;;;;;;;;;;;5017449;28;19913;-31
2022/09/14 00:47:42;;;;;;;;;;;;;;;;;;5017082;28;19925;-30
2022/09/14 00:50:08;;;;;;;;;;;;;;;;;;5016872;28;19909;-31
2022/09/14 00:52:34;;;;;;;;;;;;;;;;;;5016628;28;19917;-30
2022/09/14 00:55:00;;;;;;;;;;;;;;;;;;5016735;28;19909;-31
2022/09/14 00:57:26;;;;;;;;;;;;;;;;;;5016715;28;19913;-30
2022/09/14 00:59:52;;;;;;;;;;;;;;;;;;5016898;28;19992;-31
2022/09/14 01:02:18;;;;;;;;;;;;;;;;;;5016356;28;19935;-31
2022/09/14 01:04:44;;;;;;;;;;;;;;;;;;5016860;28;20265;-31
2022/09/14 01:07:10;;;;;;;;;;;;;;;;;;5016415;28;19944;-31
2022/09/14 01:09:37;;;;;;;;;;;;;;;;;;5016726;28;19993;-30
2022/09/14 01:12:02;;;;;;;;;;;;;;;;;;5016210;28;19918;-31
2022/09/14 01:14:29;;;;;;;;;;;;;;;;;;5017107;28;19917;-30
2022/09/14 01:16:55;;;;;;;;;;;;;;;;;;5016555;28;19920;-30
2022/09/14 01:19:21;;;;;;;;;;;;;;;;;;5016314;28;20300;-30
2022/09/14 01:21:48;;;;;;;;;;;;;;;;;;5016683;28;19913;-31
2022/09/14 01:24:14;;;;;;;;;;;;;;;;;;5016189;28;20008;-31
2022/09/14 01:26:40;;;;;;;;;;;;;;;;;;5016092;28;19909;-31
2022/09/14 01:29:06;;;;;;;;;;;;;;;;;;5016099;28;19910;-31
2022/09/14 01:31:32;;;;;;;;;;;;;;;;;;5016019;28;19918;-31
2022/09/14 01:33:58;;;;;;;;;;;;;;;;;;5016190;28;19988;-31
2022/09/14 01:36:24;;;;;;;;;;;;;;;;;;5016238;28;20014;-31
2022/09/14 01:38:50;;;;;;;;;;;;;;;;;;5016214;28;20005;-31
2022/09/14 01:41:16;;;;;;;;;;;;;;;;;;5015938;28;19913;-31
2022/09/14 01:43:42;;;;;;;;;;;;;;;;;;5015829;28;19914;-31
2022/09/14 01:46:08;;;;;;;;;;;;;;;;;;5016381;28;20000;-31
2022/09/14 01:48:34;;;;;;;;;;;;;;;;;;5015732;28;19913;-31
2022/09/14 01:51:00;;;;;;;;;;;;;;;;;;5016016;28;19914;-31
2022/09/14 01:53:26;;;;;;;;;;;;;;;;;;5015648;28;19940;-31
2022/09/14 01:55:52;;;;;;;;;;;;;;;;;;5016185;28;19921;-31
2022/09/14 01:58:18;;;;;;;;;;;;;;;;;;5015899;28;20303;-31
2022/09/14 02:00:44;;;;;;;;;;;;;;;;;;5016112;28;20344;-30
2022/09/14 02:03:10;;;;;;;;;;;;;;;;;;5015437;28;20271;-31
2022/09/14 02:05:36;;;;;;;;;;;;;;;;;;5015576;28;20005;-31
2022/09/14 02:08:02;;;;;;;;;;;;;;;;;;5015813;28;19913;-31
2022/09/14 02:10:28;;;;;;;;;;;;;;;;;;5015457;28;19975;-30
2022/09/14 02:12:54;;;;;;;;;;;;;;;;;;5015651;28;19913;-31
2022/09/14 02:15:20;;;;;;;;;;;;;;;;;;5015650;28;19914;-31
2022/09/14 02:17:46;;;;;;;;;;;;;;;;;;5015341;28;19918;-32
2022/09/14 02:20:12;;;;;;;;;;;;;;;;;;5015360;28;19913;-31
2022/09/14 02:22:38;;;;;;;;;;;;;;;;;;5015252;28;19910;-31
2022/09/14 02:25:04;;;;;;;;;;;;;;;;;;5015618;28;19913;-31
2022/09/14 02:27:30;;;;;;;;;;;;;;;;;;5015556;28;19913;-30
2022/09/14 02:29:57;;;;;;;;;;;;;;;;;;5015516;28;20301;-30
2022/09/14 02:32:23;;;;;;;;;;;;;;;;;;5015092;28;19913;-30
2022/09/14 02:34:49;;;;;;;;;;;;;;;;;;5015249;28;19913;-31
2022/09/14 02:37:15;;;;;;;;;;;;;;;;;;5018448;28;20000;-30
2022/09/14 02:39:41;;;;;;;;;;;;;;;;;;5019331;28;19918;-30
2022/09/14 02:42:07;;;;;;;;;;;;;;;;;;5019100;28;19953;-30
2022/09/14 02:44:33;;;;;;;;;;;;;;;;;;5019180;28;19918;-30
2022/09/14 02:46:59;;;;;;;;;;;;;;;;;;5019126;28;20259;-30
2022/09/14 02:49:25;;;;;;;;;;;;;;;;;;5019122;28;19909;-30
2022/09/14 02:51:51;;;;;;;;;;;;;;;;;;5019130;28;20276;-30
2022/09/14 02:54:17;;;;;;;;;;;;;;;;;;5019304;28;19910;-30
2022/09/14 02:56:43;;;;;;;;;;;;;;;;;;5018885;28;19909;-30
2022/09/14 02:59:09;;;;;;;;;;;;;;;;;;5018913;28;19917;-30
2022/09/14 03:01:36;;;;;;;;;;;;;;;;;;5019119;28;19910;-30
2022/09/14 03:04:02;;;;;;;;;;;;;;;;;;5018558;28;19987;-30
2022/09/14 03:06:27;;;;;;;;;;;;;;;;;;5019313;28;19917;-30
2022/09/14 03:08:53;;;;;;;;;;;;;;;;;;5019339;28;19909;-30
2022/09/14 03:11:19;;;;;;;;;;;;;;;;;;5018848;28;19979;-30
2022/09/14 03:13:45;;;;;;;;;;;;;;;;;;5018488;28;19909;-30
2022/09/14 03:16:11;;;;;;;;;;;;;;;;;;5018588;28;19924;-30
2022/09/14 03:18:37;;;;;;;;;;;;;;;;;;5018551;28;20001;-30
2022/09/14 03:21:03;;;;;;;;;;;;;;;;;;5018483;28;19967;-30
2022/09/14 03:23:29;;;;;;;;;;;;;;;;;;5018921;28;20010;-30
2022/09/14 03:25:55;;;;;;;;;;;;;;;;;;5018341;28;19923;-31
2022/09/14 03:28:22;;;;;;;;;;;;;;;;;;5018300;28;19921;-31
2022/09/14 03:30:48;;;;;;;;;;;;;;;;;;5018183;28;19917;-30
2022/09/14 03:33:14;;;;;;;;;;;;;;;;;;5018244;28;19920;-30
2022/09/14 03:35:40;;;;;;;;;;;;;;;;;;5018213;28;19920;-30
2022/09/14 03:38:06;;;;;;;;;;;;;;;;;;5018181;28;19913;-30
2022/09/14 03:40:32;;;;;;;;;;;;;;;;;;5018088;28;19920;-31
2022/09/14 03:42:58;;;;;;;;;;;;;;;;;;5018432;28;19909;-30
2022/09/14 03:45:24;;;;;;;;;;;;;;;;;;5017974;28;20007;-30
2022/09/14 03:47:50;;;;;;;;;;;;;;;;;;5018340;28;19920;-31
2022/09/14 03:50:16;;;;;;;;;;;;;;;;;;5018176;28;19917;-30
2022/09/14 03:52:42;;;;;;;;;;;;;;;;;;5018074;28;19924;-30
2022/09/14 03:55:08;;;;;;;;;;;;;;;;;;5018101;28;19909;-30
2022/09/14 03:57:34;;;;;;;;;;;;;;;;;;5018040;28;20329;-30
2022/09/14 04:00:00;;;;;;;;;;;;;;;;;;5017700;28;19914;-31
2022/09/14 04:02:26;;;;;;;;;;;;;;;;;;5017169;28;19917;-30
2022/09/14 04:04:52;;;;;;;;;;;;;;;;;;5017377;28;19905;-30
2022/09/14 04:07:19;;;;;;;;;;;;;;;;;;5017325;28;19913;-30
2022/09/14 04:09:45;;;;;;;;;;;;;;;;;;5017940;28;19910;-31
2022/09/14 04:12:11;;;;;;;;;;;;;;;;;;5017552;28;20004;-31
2022/09/14 04:14:36;;;;;;;;;;;;;;;;;;5017812;28;19941;-31
2022/09/14 04:17:02;;;;;;;;;;;;;;;;;;5017480;28;20261;-30
2022/09/14 04:19:28;;;;;;;;;;;;;;;;;;5017054;28;19909;-31
2022/09/14 04:21:54;;;;;;;;;;;;;;;;;;5016887;28;20345;-30
2022/09/14 04:24:21;;;;;;;;;;;;;;;;;;5017145;28;19920;-31
2022/09/14 04:26:47;;;;;;;;;;;;;;;;;;5016830;28;19936;-31
2022/09/14 04:29:13;;;;;;;;;;;;;;;;;;5015793;28;19936;-30
2022/09/14 04:31:39;;;;;;;;;;;;;;;;;;5016664;28;20019;-31
2022/09/14 04:34:05;;;;;;;;;;;;;;;;;;5016953;28;19909;-31
2022/09/14 04:36:31;;;;;;;;;;;;;;;;;;5016972;28;19918;-31
2022/09/14 04:38:57;;;;;;;;;;;;;;;;;;5016611;28;19913;-30
2022/09/14 04:41:23;;;;;;;;;;;;;;;;;;5016510;28;19914;-30
2022/09/14 04:43:52;;;;;;;;;;;;;;;;;;5016676;28;19925;-30
2022/09/14 04:46:18;;;;;;;;;;;;;;;;;;5016533;28;19914;-31
2022/09/14 04:48:44;;;;;;;;;;;;;;;;;;5016390;28;20359;-31
2022/09/14 04:51:10;;;;;;;;;;;;;;;;;;5016608;28;19928;-31
2022/09/14 04:53:36;;;;;;;;;;;;;;;;;;5016654;28;20336;-32
2022/09/14 04:56:02;;;;;;;;;;;;;;;;;;5016599;28;19924;-32
2022/09/14 04:58:28;;;;;;;;;;;;;;;;;;5015705;28;20369;-31
2022/09/14 05:00:54;;;;;;;;;;;;;;;;;;5016034;28;20012;-31
2022/09/14 05:03:20;;;;;;;;;;;;;;;;;;5015916;28;19961;-31
2022/09/14 05:05:46;;;;;;;;;;;;;;;;;;5016349;28;20252;-31
2022/09/14 05:08:12;;;;;;;;;;;;;;;;;;5016070;28;19910;-31
2022/09/14 05:10:38;;;;;;;;;;;;;;;;;;5016219;28;19935;-31
2022/09/14 05:13:04;;;;;;;;;;;;;;;;;;5016170;28;19945;-31
2022/09/14 05:15:30;;;;;;;;;;;;;;;;;;5016090;28;19920;-30
2022/09/14 05:17:56;;;;;;;;;;;;;;;;;;5016202;28;19987;-31
2022/09/14 05:20:22;;;;;;;;;;;;;;;;;;5015938;28;20008;-31
2022/09/14 05:22:48;;;;;;;;;;;;;;;;;;5015670;28;20316;-31
2022/09/14 05:25:14;;;;;;;;;;;;;;;;;;5016120;28;19921;-30
2022/09/14 05:27:40;;;;;;;;;;;;;;;;;;5016019;28;19975;-31
2022/09/14 05:30:06;;;;;;;;;;;;;;;;;;5015738;28;19913;-30
2022/09/14 05:32:32;;;;;;;;;;;;;;;;;;5015520;28;19913;-30
2022/09/14 05:34:58;;;;;;;;;;;;;;;;;;5015788;28;19913;-31
2022/09/14 05:37:24;;;;;;;;;;;;;;;;;;5015696;28;19913;-31
2022/09/14 05:39:50;;;;;;;;;;;;;;;;;;5015340;28;19914;-31
2022/09/14 05:42:16;;;;;;;;;;;;;;;;;;5015475;28;19914;-31
2022/09/14 05:44:42;;;;;;;;;;;;;;;;;;5015211;28;19914;-32
2022/09/14 05:47:08;;;;;;;;;;;;;;;;;;5015498;28;19913;-31
2022/09/14 05:49:34;;;;;;;;;;;;;;;;;;5015293;28;19940;-32
2022/09/14 05:52:00;;;;;;;;;;;;;;;;;;5015386;28;19917;-31
2022/09/14 05:54:26;;;;;;;;;;;;;;;;;;5015474;28;20252;-31
2022/09/14 05:56:52;;;;;;;;;;;;;;;;;;5015584;28;19960;-32
2022/09/14 05:59:18;;;;;;;;;;;;;;;;;;5015044;28;19909;-31
2022/09/14 06:01:44;;;;;;;;;;;;;;;;;;5015503;28;19910;-31
2022/09/14 06:04:10;;;;;;;;;;;;;;;;;;5014802;28;20008;-31
2022/09/14 06:06:36;;;;;;;;;;;;;;;;;;5014824;28;19941;-31
2022/09/14 06:09:02;;;;;;;;;;;;;;;;;;5015080;28;19909;-31
2022/09/14 06:11:28;;;;;;;;;;;;;;;;;;5014380;28;19917;-31
2022/09/14 06:13:54;;;;;;;;;;;;;;;;;;5014719;28;19921;-31
2022/09/14 06:16:20;;;;;;;;;;;;;;;;;;5015146;28;19914;-31
2022/09/14 06:18:46;;;;;;;;;;;;;;;;;;5015108;28;20282;-31
2022/09/14 06:21:14;;;;;;;;;;;;;;;;;;5015583;28;19920;-31
2022/09/14 06:23:40;;;;;;;;;;;;;;;;;;5015023;28;19977;-31
2022/09/14 06:26:06;;;;;;;;;;;;;;;;;;5014898;28;19978;-31
2022/09/14 06:28:32;;;;;;;;;;;;;;;;;;5014906;28;20333;-31
2022/09/14 06:30:57;;;;;;;;;;;;;;;;;;5014754;28;20347;-31
2022/09/14 06:33:23;;;;;;;;;;;;;;;;;;5014327;28;19913;-31
2022/09/14 06:35:49;;;;;;;;;;;;;;;;;;5014694;28;19969;-31
2022/09/14 06:38:15;;;;;;;;;;;;;;;;;;5014649;28;19913;-31
2022/09/14 06:40:41;;;;;;;;;;;;;;;;;;5014562;28;20352;-31
2022/09/14 06:43:07;;;;;;;;;;;;;;;;;;5014558;28;19996;-31
2022/09/14 06:45:35;;;;;;;;;;;;;;;;;;5014610;28;19925;-31
2022/09/14 06:48:01;;;;;;;;;;;;;;;;;;5014973;28;20023;-31
2022/09/14 06:50:27;;;;;;;;;;;;;;;;;;5014668;28;19956;-31
2022/09/14 06:52:53;;;;;;;;;;;;;;;;;;5014407;28;19917;-32
2022/09/14 06:55:19;;;;;;;;;;;;;;;;;;5014570;28;19920;-31
2022/09/14 06:57:45;;;;;;;;;;;;;;;;;;5015129;28;19913;-31
2022/09/14 07:00:11;;;;;;;;;;;;;;;;;;5014470;28;19997;-32
2022/09/14 07:02:37;;;;;;;;;;;;;;;;;;5014159;28;19949;-31
2022/09/14 07:05:03;;;;;;;;;;;;;;;;;;5014414;28;20234;-31
2022/09/14 07:07:29;;;;;;;;;;;;;;;;;;5014585;28;20269;-31
2022/09/14 07:09:55;;;;;;;;;;;;;;;;;;5014759;28;20009;-32
2022/09/14 07:12:21;;;;;;;;;;;;;;;;;;5014493;28;19921;-31
2022/09/14 07:14:47;;;;;;;;;;;;;;;;;;5014332;28;19913;-31
2022/09/14 07:17:15;;;;;;;;;;;;;;;;;;5014247;28;19968;-31
2022/09/14 07:19:42;;;;;;;;;;;;;;;;;;5014449;28;20293;-31
2022/09/14 07:22:08;;;;;;;;;;;;;;;;;;5014949;28;19920;-31
2022/09/14 07:24:34;;;;;;;;;;;;;;;;;;5018077;28;19910;-31
2022/09/14 07:27:00;;;;;;;;;;;;;;;;;;5018071;28;20269;-31
2022/09/14 07:29:26;;;;;;;;;;;;;;;;;;5017844;28;19913;-31
2022/09/14 07:31:52;;;;;;;;;;;;;;;;;;5017835;28;20356;-31
2022/09/14 07:34:18;;;;;;;;;;;;;;;;;;5017934;28;19917;-31
2022/09/14 07:36:45;;;;;;;;;;;;;;;;;;5017787;28;19932;-31
2022/09/14 07:39:11;;;;;;;;;;;;;;;;;;5017572;28;20361;-32
2022/09/14 07:41:37;;;;;;;;;;;;;;;;;;5017678;28;19941;-31
2022/09/14 07:44:03;;;;;;;;;;;;;;;;;;5017380;28;19909;-31
2022/09/14 07:46:29;;;;;;;;;;;;;;;;;;5017419;28;19991;-31
2022/09/14 07:48:55;;;;;;;;;;;;;;;;;;5017423;28;19921;-30
2022/09/14 07:51:21;;;;;;;;;;;;;;;;;;5017107;28;19928;-30
2022/09/14 07:53:47;;;;;;;;;;;;;;;;;;5017251;28;19909;-31
2022/09/14 07:56:15;;;;;;;;;;;;;;;;;;5017563;28;20022;-31
2022/09/14 07:58:41;;;;;;;;;;;;;;;;;;5017184;28;20363;-30
2022/09/14 08:01:07;;;;;;;;;;;;;;;;;;5017442;28;19910;-31
2022/09/14 08:03:35;;;;;;;;;;;;;;;;;;5016831;28;20254;-30
2022/09/14 08:06:01;;;;;;;;;;;;;;;;;;5017255;28;20425;-31
2022/09/14 08:08:27;;;;;;;;;;;;;;;;;;5017129;28;19914;-30
2022/09/14 08:10:54;;;;;;;;;;;;;;;;;;5016819;28;20228;-30
2022/09/14 08:13:22;;;;;;;;;;;;;;;;;;5017194;28;20257;-31
2022/09/14 08:15:48;;;;;;;;;;;;;;;;;;5017046;28;20230;-30
2022/09/14 08:18:14;;;;;;;;;;;;;;;;;;5015808;28;19920;-31
2022/09/14 08:20:40;;;;;;;;;;;;;;;;;;5016930;28;19917;-30
2022/09/14 08:23:06;;;;;;;;;;;;;;;;;;5016673;28;19910;-30
2022/09/14 08:25:32;;;;;;;;;;;;;;;;;;5016693;28;19920;-31
2022/09/14 08:27:58;;;;;;;;;;;;;;;;;;5016711;28;20355;-31
2022/09/14 08:30:24;;;;;;;;;;;;;;;;;;5016635;28;19910;-31
2022/09/14 08:32:50;;;;;;;;;;;;;;;;;;5016398;28;19918;-32
2022/09/14 08:35:16;;;;;;;;;;;;;;;;;;5015632;28;19913;-32
2022/09/14 08:37:42;;;;;;;;;;;;;;;;;;5016719;28;19917;-32
2022/09/14 08:40:10;;;;;;;;;;;;;;;;;;5016543;28;19924;-30
2022/09/14 08:42:36;;;;;;;;;;;;;;;;;;5016752;28;20364;-31
2022/09/14 08:45:02;;;;;;;;;;;;;;;;;;5016892;28;19968;-31
2022/09/14 08:47:28;;;;;;;;;;;;;;;;;;5016595;28;19913;-31
2022/09/14 08:49:54;;;;;;;;;;;;;;;;;;5016731;28;19914;-31
2022/09/14 08:52:21;;;;;;;;;;;;;;;;;;5016597;28;20351;-31
2022/09/14 08:54:47;;;;;;;;;;;;;;;;;;5016407;28;19913;-30
2022/09/14 08:57:13;;;;;;;;;;;;;;;;;;5016299;28;19921;-31
2022/09/14 08:59:39;;;;;;;;;;;;;;;;;;5016774;28;20048;-31
2022/09/14 09:02:05;;;;;;;;;;;;;;;;;;5016267;28;20356;-31
2022/09/14 09:04:31;;;;;;;;;;;;;;;;;;5016170;28;19976;-31
2022/09/14 09:06:57;;;;;;;;;;;;;;;;;;5016108;28;19917;-31
2022/09/14 09:09:23;;;;;;;;;;;;;;;;;;5016105;28;19920;-31
2022/09/14 09:11:49;;;;;;;;;;;;;;;;;;5016195;28;19917;-31
2022/09/14 09:14:15;;;;;;;;;;;;;;;;;;5016576;28;19914;-31
2022/09/14 09:16:41;;;;;;;;;;;;;;;;;;5016303;28;19936;-31
2022/09/14 09:19:07;;;;;;;;;;;;;;;;;;5015938;28;19914;-31
2022/09/14 09:21:33;;;;;;;;;;;;;;;;;;5015912;28;19945;-31
2022/09/14 09:23:59;;;;;;;;;;;;;;;;;;5015690;28;19914;-31
2022/09/14 09:26:25;;;;;;;;;;;;;;;;;;5016305;28;19909;-31
2022/09/14 09:28:51;;;;;;;;;;;;;;;;;;5016141;28;19991;-31
2022/09/14 09:31:17;;;;;;;;;;;;;;;;;;5015571;28;20344;-31
2022/09/14 09:33:43;;;;;;;;;;;;;;;;;;5015547;28;19968;-30
2022/09/14 09:36:09;;;;;;;;;;;;;;;;;;5015543;28;19917;-31
2022/09/14 09:38:35;;;;;;;;;;;;;;;;;;5015519;28;19914;-31
2022/09/14 09:41:01;;;;;;;;;;;;;;;;;;5015546;28;19944;-30
2022/09/14 09:43:27;;;;;;;;;;;;;;;;;;5015389;28;19984;-30
2022/09/14 09:45:53;;;;;;;;;;;;;;;;;;5015125;28;19947;-31
2022/09/14 09:48:19;;;;;;;;;;;;;;;;;;5015333;28;19991;-31
2022/09/14 09:50:45;;;;;;;;;;;;;;;;;;5015075;28;19914;-31
2022/09/14 09:53:11;;;;;;;;;;;;;;;;;;5015393;28;20320;-31
2022/09/14 09:55:37;;;;;;;;;;;;;;;;;;5015323;28;19996;-30
2022/09/14 09:58:03;;;;;;;;;;;;;;;;;;5015289;28;19996;-31
2022/09/14 10:00:29;;;;;;;;;;;;;;;;;;5015474;28;20340;-31
2022/09/14 10:02:55;;;;;;;;;;;;;;;;;;5015046;28;19928;-30
2022/09/14 10:05:21;;;;;;;;;;;;;;;;;;5015020;28;19918;-31
2022/09/14 10:07:47;;;;;;;;;;;;;;;;;;5015163;28;20352;-30
2022/09/14 10:10:13;;;;;;;;;;;;;;;;;;5015104;28;19913;-31
2022/09/14 10:12:39;;;;;;;;;;;;;;;;;;5015474;28;20332;-31
2022/09/14 10:15:05;;;;;;;;;;;;;;;;;;5015057;28;19913;-31
2022/09/14 10:17:31;;;;;;;;;;;;;;;;;;5015297;28;19917;-31
2022/09/14 10:19:57;;;;;;;;;;;;;;;;;;5014885;28;19952;-31
2022/09/14 10:22:23;;;;;;;;;;;;;;;;;;5015074;28;19910;-30
2022/09/14 10:24:49;;;;;;;;;;;;;;;;;;5014926;28;19936;-30
2022/09/14 10:27:15;;;;;;;;;;;;;;;;;;5014791;28;19914;-31
2022/09/14 10:29:41;;;;;;;;;;;;;;;;;;5013851;28;19918;-31
2022/09/14 10:32:08;;;;;;;;;;;;;;;;;;5014664;28;19939;-31
2022/09/14 10:34:34;;;;;;;;;;;;;;;;;;5014674;28;19909;-31
2022/09/14 10:37:00;;;;;;;;;;;;;;;;;;5014791;28;19944;-31
2022/09/14 10:39:26;;;;;;;;;;;;;;;;;;5014760;28;19910;-31
2022/09/14 10:41:52;;;;;;;;;;;;;;;;;;5015197;28;19913;-30
2022/09/14 10:44:20;;;;;;;;;;;;;;;;;;5014701;28;19910;-31
2022/09/14 10:46:46;;;;;;;;;;;;;;;;;;5015021;28;20030;-31
2022/09/14 10:49:12;;;;;;;;;;;;;;;;;;5014832;28;20360;-31
2022/09/14 10:51:38;;;;;;;;;;;;;;;;;;5014689;28;19971;-31
2022/09/14 10:54:04;;;;;;;;;;;;;;;;;;5014833;28;19910;-30
2022/09/14 10:56:30;;;;;;;;;;;;;;;;;;5013616;28;19914;-31
2022/09/14 10:58:56;;;;;;;;;;;;;;;;;;5018742;28;19914;-30
2022/09/14 11:01:22;;;;;;;;;;;;;;;;;;5018783;28;20281;-31
2022/09/14 11:03:48;;;;;;;;;;;;;;;;;;5018137;28;19952;-31
2022/09/14 11:06:14;;;;;;;;;;;;;;;;;;5018490;28;20004;-31
2022/09/14 11:08:40;;;;;;;;;;;;;;;;;;5018478;28;20382;-31
2022/09/14 11:11:06;;;;;;;;;;;;;;;;;;5018368;28;20016;-31
2022/09/14 11:13:32;;;;;;;;;;;;;;;;;;5018375;28;19918;-30
2022/09/14 11:15:58;;;;;;;;;;;;;;;;;;5018294;28;19949;-31
2022/09/14 11:18:24;;;;;;;;;;;;;;;;;;5018567;28;19910;-31
2022/09/14 11:20:50;;;;;;;;;;;;;;;;;;5018376;28;20092;-32
2022/09/14 11:23:16;;;;;;;;;;;;;;;;;;5017870;28;19956;-30
2022/09/14 11:25:42;;;;;;;;;;;;;;;;;;5018117;28;19913;-30
2022/09/14 11:28:08;;;;;;;;;;;;;;;;;;5017743;28;19914;-31
2022/09/14 11:30:34;;;;;;;;;;;;;;;;;;5017713;28;19967;-30
2022/09/14 11:33:00;;;;;;;;;;;;;;;;;;5017393;28;20051;-32
2022/09/14 11:35:26;;;;;;;;;;;;;;;;;;5017633;28;20063;-31
2022/09/14 11:37:52;;;;;;;;;;;;;;;;;;5017567;28;19910;-31
2022/09/14 11:40:18;;;;;;;;;;;;;;;;;;5017496;28;20000;-31
2022/09/14 11:42:44;;;;;;;;;;;;;;;;;;5017355;28;19949;-31
2022/09/14 11:45:10;;;;;;;;;;;;;;;;;;5016486;28;19916;-31
2022/09/14 11:47:36;;;;;;;;;;;;;;;;;;5018402;28;19945;-31
2022/09/14 11:50:02;;;;;;;;;;;;;;;;;;5017410;28;19920;-31
2022/09/14 11:52:28;;;;;;;;;;;;;;;;;;5016219;28;19922;-31
2022/09/14 11:54:54;;;;;;;;;;;;;;;;;;5017322;28;20345;-31
2022/09/14 11:57:20;;;;;;;;;;;;;;;;;;5017183;28;19913;-31
2022/09/14 11:59:49;;;;;;;;;;;;;;;;;;5017937;28;19913;-31
2022/09/14 12:02:15;;;;;;;;;;;;;;;;;;5016722;28;20001;-31
2022/09/14 12:04:41;;;;;;;;;;;;;;;;;;5017090;28;19991;-32
2022/09/14 12:07:07;;;;;;;;;;;;;;;;;;5017137;28;19924;-31
2022/09/14 12:09:33;;;;;;;;;;;;;;;;;;5016943;28;19913;-32
2022/09/14 12:11:59;;;;;;;;;;;;;;;;;;5017024;28;20052;-31
2022/09/14 12:14:26;;;;;;;;;;;;;;;;;;5017265;28;19913;-31
2022/09/14 12:16:52;;;;;;;;;;;;;;;;;;5016940;28;19976;-31
2022/09/14 12:19:18;;;;;;;;;;;;;;;;;;5016854;28;19971;-31
2022/09/14 12:21:44;;;;;;;;;;;;;;;;;;5016766;28;19916;-32
2022/09/14 12:24:10;;;;;;;;;;;;;;;;;;5017008;28;20332;-31
2022/09/14 12:26:36;;;;;;;;;;;;;;;;;;5016657;28;20335;-31
2022/09/14 12:29:02;;;;;;;;;;;;;;;;;;5016988;28;19917;-31
2022/09/14 12:31:28;;;;;;;;;;;;;;;;;;5016692;28;20403;-31
2022/09/14 12:33:54;;;;;;;;;;;;;;;;;;5016428;28;19915;-31
2022/09/14 12:36:20;;;;;;;;;;;;;;;;;;5016558;28;20020;-31
2022/09/14 12:38:46;;;;;;;;;;;;;;;;;;5016730;28;19956;-31
2022/09/14 12:41:12;;;;;;;;;;;;;;;;;;5016497;28;19914;-31
2022/09/14 12:43:38;;;;;;;;;;;;;;;;;;5016273;28;19914;-31
2022/09/14 12:46:04;;;;;;;;;;;;;;;;;;5016331;28;19913;-31
2022/09/14 12:48:30;;;;;;;;;;;;;;;;;;5016597;28;19914;-32
2022/09/14 12:50:56;;;;;;;;;;;;;;;;;;5015935;28;19971;-31
2022/09/14 12:53:22;;;;;;;;;;;;;;;;;;5016116;28;20349;-31
2022/09/14 12:55:48;;;;;;;;;;;;;;;;;;5016316;28;20265;-31
2022/09/14 12:58:14;;;;;;;;;;;;;;;;;;5016015;28;19917;-31
2022/09/14 13:00:40;;;;;;;;;;;;;;;;;;5016230;28;19949;-31
2022/09/14 13:03:06;;;;;;;;;;;;;;;;;;5015754;28;19922;-31
2022/09/14 13:05:32;;;;;;;;;;;;;;;;;;5016372;28;19914;-31
2022/09/14 13:07:58;;;;;;;;;;;;;;;;;;5015638;28;19921;-31
2022/09/14 13:10:24;;;;;;;;;;;;;;;;;;5016073;28;19971;-31
2022/09/14 13:12:50;;;;;;;;;;;;;;;;;;5015641;28;20316;-32
2022/09/14 13:15:16;;;;;;;;;;;;;;;;;;5016062;28;19913;-32
2022/09/14 13:17:42;;;;;;;;;;;;;;;;;;5015735;28;20301;-32
2022/09/14 13:20:08;;;;;;;;;;;;;;;;;;5015313;28;19913;-32
2022/09/14 13:22:34;;;;;;;;;;;;;;;;;;5015681;28;19921;-32
2022/09/14 13:25:00;;;;;;;;;;;;;;;;;;5015774;28;20210;-32
2022/09/14 13:27:26;;;;;;;;;;;;;;;;;;5015642;28;19913;-31
2022/09/14 13:29:52;;;;;;;;;;;;;;;;;;5015792;28;19909;-31
2022/09/14 13:32:18;;;;;;;;;;;;;;;;;;5015461;28;19976;-31
2022/09/14 13:34:44;;;;;;;;;;;;;;;;;;5015659;28;20301;-31
2022/09/14 13:37:10;;;;;;;;;;;;;;;;;;5016148;28;19914;-32
2022/09/14 13:39:36;;;;;;;;;;;;;;;;;;5015662;28;19940;-32
2022/09/14 13:42:02;;;;;;;;;;;;;;;;;;5015543;28;20364;-32
2022/09/14 13:44:28;;;;;;;;;;;;;;;;;;5016016;28;19919;-31
2022/09/14 13:46:54;;;;;;;;;;;;;;;;;;5015453;28;20311;-32
2022/09/14 13:49:20;;;;;;;;;;;;;;;;;;5015712;28;19910;-32
2022/09/14 13:51:46;;;;;;;;;;;;;;;;;;5015836;28;20359;-32
2022/09/14 13:54:12;;;;;;;;;;;;;;;;;;5015245;28;20012;-32
2022/09/14 13:56:38;;;;;;;;;;;;;;;;;;5015266;28;19909;-31
2022/09/14 13:59:04;;;;;;;;;;;;;;;;;;5015523;28;19964;-31
2022/09/14 14:01:30;;;;;;;;;;;;;;;;;;5015248;28;19917;-31
2022/09/14 14:03:57;;;;;;;;;;;;;;;;;;5014957;28;19933;-32
2022/09/14 14:06:24;;;;;;;;;;;;;;;;;;5015130;28;19909;-32
2022/09/14 14:08:49;;;;;;;;;;;;;;;;;;5015125;28;20012;-32
2022/09/14 14:11:15;;;;;;;;;;;;;;;;;;5015373;28;19964;-31
2022/09/14 14:13:41;;;;;;;;;;;;;;;;;;5015057;28;19937;-32
2022/09/14 14:16:07;;;;;;;;;;;;;;;;;;5015093;28;19913;-31
2022/09/14 14:18:33;;;;;;;;;;;;;;;;;;5015194;28;19960;-31
2022/09/14 14:20:59;;;;;;;;;;;;;;;;;;5015027;28;19910;-32
2022/09/14 14:23:25;;;;;;;;;;;;;;;;;;5015340;28;19992;-32
2022/09/14 14:25:52;;;;;;;;;;;;;;;;;;5015210;28;19921;-32
2022/09/14 14:28:19;;;;;;;;;;;;;;;;;;5015208;28;19925;-32
2022/09/14 14:30:45;;;;;;;;;;;;;;;;;;5013938;28;19913;-32
2022/09/14 14:33:11;;;;;;;;;;;;;;;;;;5014087;28;19992;-31
2022/09/14 14:35:36;;;;;;;;;;;;;;;;;;5015069;28;19914;-32
2022/09/14 14:38:03;;;;;;;;;;;;;;;;;;5014783;28;19972;-32
2022/09/14 14:40:29;;;;;;;;;;;;;;;;;;5014715;28;20004;-32
2022/09/14 14:42:56;;;;;;;;;;;;;;;;;;5014837;28;20321;-31
2022/09/14 14:45:25;;;;;;;;;;;;;;;;;;5014991;28;19909;-31
2022/09/14 14:47:51;;;;;;;;;;;;;;;;;;5015524;28;20241;-31
2022/09/14 14:50:16;;;;;;;;;;;;;;;;;;5015027;28;19924;-32
2022/09/14 14:52:42;;;;;;;;;;;;;;;;;;5014674;28;20471;-31
2022/09/14 14:55:09;;;;;;;;;;;;;;;;;;5014757;28;19981;-31
2022/09/14 14:57:37;;;;;;;;;;;;;;;;;;5015027;28;19910;-32
2022/09/14 15:00:03;;;;;;;;;;;;;;;;;;5014606;28;20332;-31
2022/09/14 15:02:29;;;;;;;;;;;;;;;;;;5014337;28;19928;-32
2022/09/14 15:04:55;;;;;;;;;;;;;;;;;;5014801;28;19910;-31
2022/09/14 15:07:21;;;;;;;;;;;;;;;;;;5014900;28;20249;-31
2022/09/14 15:09:47;;;;;;;;;;;;;;;;;;5014419;28;19913;-31
2022/09/14 15:12:13;;;;;;;;;;;;;;;;;;5014283;28;19924;-31
2022/09/14 15:14:39;;;;;;;;;;;;;;;;;;5014545;28;20012;-32
2022/09/14 15:17:05;;;;;;;;;;;;;;;;;;5015244;28;19913;-32
2022/09/14 15:19:31;;;;;;;;;;;;;;;;;;5014582;28;19975;-32
2022/09/14 15:21:57;;;;;;;;;;;;;;;;;;5014915;28;19914;-32
2022/09/14 15:24:23;;;;;;;;;;;;;;;;;;5014365;28;20387;-32
2022/09/14 15:26:49;;;;;;;;;;;;;;;;;;5014430;28;19959;-32
2022/09/14 15:29:18;;;;;;;;;;;;;;;;;;5014348;28;20020;-32
2022/09/14 15:31:44;;;;;;;;;;;;;;;;;;5014216;28;19918;-32
2022/09/14 15:34:10;;;;;;;;;;;;;;;;;;5014387;28;19963;-32
2022/09/14 15:36:36;;;;;;;;;;;;;;;;;;5014331;28;19912;-31
2022/09/14 15:39:02;;;;;;;;;;;;;;;;;;5014489;28;20367;-31
2022/09/14 15:41:28;;;;;;;;;;;;;;;;;;5014219;28;19910;-31
2022/09/14 15:43:54;;;;;;;;;;;;;;;;;;5016261;28;20004;-31
2022/09/14 15:46:20;;;;;;;;;;;;;;;;;;5017935;28;19954;-32
2022/09/14 15:48:46;;;;;;;;;;;;;;;;;;5017930;28;20361;-32
2022/09/14 15:51:12;;;;;;;;;;;;;;;;;;5017406;28;19920;-32
2022/09/14 15:53:38;;;;;;;;;;;;;;;;;;5017350;28;19960;-32
2022/09/14 15:56:04;;;;;;;;;;;;;;;;;;5017722;28;19909;-32
2022/09/14 15:58:30;;;;;;;;;;;;;;;;;;5017567;28;20280;-31
2022/09/14 16:00:56;;;;;;;;;;;;;;;;;;5017584;28;19913;-32
2022/09/14 16:03:22;;;;;;;;;;;;;;;;;;5017159;28;19928;-31
2022/09/14 16:05:48;;;;;;;;;;;;;;;;;;5017384;28;19914;-31
2022/09/14 16:08:14;;;;;;;;;;;;;;;;;;5017220;28;19909;-31
2022/09/14 16:10:42;;;;;;;;;;;;;;;;;;5016723;28;20147;-31
2022/09/14 16:13:08;;;;;;;;;;;;;;;;;;5016929;28;20337;-31
2022/09/14 16:15:34;;;;;;;;;;;;;;;;;;5018145;28;19925;-31
2022/09/14 16:18:00;;;;;;;;;;;;;;;;;;5017120;28;20256;-31
2022/09/14 16:20:26;;;;;;;;;;;;;;;;;;5017022;28;20404;-31
2022/09/14 16:22:52;;;;;;;;;;;;;;;;;;5017276;28;19920;-32
2022/09/14 16:25:18;;;;;;;;;;;;;;;;;;5017042;28;19996;-31
2022/09/14 16:27:44;;;;;;;;;;;;;;;;;;5017411;28;20257;-31
2022/09/14 16:30:10;;;;;;;;;;;;;;;;;;5016883;28;20356;-32
2022/09/14 16:32:36;;;;;;;;;;;;;;;;;;5016700;28;19913;-31
2022/09/14 16:35:03;;;;;;;;;;;;;;;;;;5016814;28;20221;-31
2022/09/14 16:37:29;;;;;;;;;;;;;;;;;;5016958;28;19921;-31